sensor_id;sensor_type;location;lat;lon;timestamp;temperature;humidity
71837;DHT22;59686;51.716;7.016;2023-03-01T00:02:13;8.10;64.60
71837;DHT22;59686;51.716;7.016;2023-03-01T00:04:39;8.10;64.50
71837;DHT22;59686;51.716;7.016;2023-03-01T00:07:04;8.10;64.60
71837;DHT22;59686;51.716;7.016;2023-03-01T00:09:30;8.10;64.40
71837;DHT22;59686;51.716;7.016;2023-03-01T00:11:56;8.10;64.40
71837;DHT22;59686;51.716;7.016;2023-03-01T00:14:21;8.20;64.50
71837;DHT22;59686;51.716;7.016;2023-03-01T00:16:47;8.00;64.40
71837;DHT22;59686;51.716;7.016;2023-03-01T00:19:18;8.10;64.60
71837;DHT22;59686;51.716;7.016;2023-03-01T00:21:44;8.10;65.30
71837;DHT22;59686;51.716;7.016;2023-03-01T00:24:10;7.90;64.30
71837;DHT22;59686;51.716;7.016;2023-03-01T00:26:36;8.00;64.40
71837;DHT22;59686;51.716;7.016;2023-03-01T00:29:02;8.10;64.50
71837;DHT22;59686;51.716;7.016;2023-03-01T00:31:30;8.00;64.60
71837;DHT22;59686;51.716;7.016;2023-03-01T00:33:59;8.00;64.70
71837;DHT22;59686;51.716;7.016;2023-03-01T00:36:30;8.00;64.60
71837;DHT22;59686;51.716;7.016;2023-03-01T00:38:56;8.00;64.60
71837;DHT22;59686;51.716;7.016;2023-03-01T00:41:22;8.00;64.60
71837;DHT22;59686;51.716;7.016;2023-03-01T00:43:49;8.00;64.50
71837;DHT22;59686;51.716;7.016;2023-03-01T00:46:20;8.00;64.50
71837;DHT22;59686;51.716;7.016;2023-03-01T00:48:46;7.90;64.40
71837;DHT22;59686;51.716;7.016;2023-03-01T00:51:17;7.90;64.40
71837;DHT22;59686;51.716;7.016;2023-03-01T00:53:44;7.80;64.30
71837;DHT22;59686;51.716;7.016;2023-03-01T00:56:12;7.90;64.50
71837;DHT22;59686;51.716;7.016;2023-03-01T00:58:49;7.90;64.50
71837;DHT22;59686;51.716;7.016;2023-03-01T01:01:24;7.90;64.50
71837;DHT22;59686;51.716;7.016;2023-03-01T01:03:51;7.90;64.50
71837;DHT22;59686;51.716;7.016;2023-03-01T01:09:15;7.80;64.50
71837;DHT22;59686;51.716;7.016;2023-03-01T01:11:49;7.80;64.50
71837;DHT22;59686;51.716;7.016;2023-03-01T01:14:16;7.80;64.40
71837;DHT22;59686;51.716;7.016;2023-03-01T01:16:43;7.80;64.40
71837;DHT22;59686;51.716;7.016;2023-03-01T01:19:12;7.80;64.40
71837;DHT22;59686;51.716;7.016;2023-03-01T01:21:39;7.80;64.30
71837;DHT22;59686;51.716;7.016;2023-03-01T01:24:05;7.80;64.40
71837;DHT22;59686;51.716;7.016;2023-03-01T01:26:33;7.80;64.40
71837;DHT22;59686;51.716;7.016;2023-03-01T01:28:59;7.80;64.40
71837;DHT22;59686;51.716;7.016;2023-03-01T01:31:27;7.80;65.20
71837;DHT22;59686;51.716;7.016;2023-03-01T01:33:54;7.80;64.40
71837;DHT22;59686;51.716;7.016;2023-03-01T01:36:20;7.70;64.40
71837;DHT22;59686;51.716;7.016;2023-03-01T01:38:46;7.70;64.40
71837;DHT22;59686;51.716;7.016;2023-03-01T01:41:13;7.70;64.40
71837;DHT22;59686;51.716;7.016;2023-03-01T01:43:45;7.70;64.30
71837;DHT22;59686;51.716;7.016;2023-03-01T01:48:55;7.80;64.50
71837;DHT22;59686;51.716;7.016;2023-03-01T01:51:25;7.80;64.50
71837;DHT22;59686;51.716;7.016;2023-03-01T01:53:57;7.70;64.40
71837;DHT22;59686;51.716;7.016;2023-03-01T01:56:24;7.70;64.10
71837;DHT22;59686;51.716;7.016;2023-03-01T01:58:50;7.70;64.20
71837;DHT22;59686;51.716;7.016;2023-03-01T02:01:16;7.60;64.10
71837;DHT22;59686;51.716;7.016;2023-03-01T02:03:44;7.60;64.10
71837;DHT22;59686;51.716;7.016;2023-03-01T02:06:48;7.60;64.10
71837;DHT22;59686;51.716;7.016;2023-03-01T02:09:10;7.60;64.30
71837;DHT22;59686;51.716;7.016;2023-03-01T02:11:36;7.60;64.30
71837;DHT22;59686;51.716;7.016;2023-03-01T02:14:03;7.60;64.30
71837;DHT22;59686;51.716;7.016;2023-03-01T02:16:29;7.60;64.30
71837;DHT22;59686;51.716;7.016;2023-03-01T02:18:57;7.60;64.30
71837;DHT22;59686;51.716;7.016;2023-03-01T02:24:38;7.50;64.30
71837;DHT22;59686;51.716;7.016;2023-03-01T02:27:06;7.50;64.20
71837;DHT22;59686;51.716;7.016;2023-03-01T02:29:32;7.60;64.20
71837;DHT22;59686;51.716;7.016;2023-03-01T02:32:00;7.50;64.20
71837;DHT22;59686;51.716;7.016;2023-03-01T02:34:28;7.50;64.10
71837;DHT22;59686;51.716;7.016;2023-03-01T02:37:09;7.50;64.20
71837;DHT22;59686;51.716;7.016;2023-03-01T02:39:44;7.50;64.20
71837;DHT22;59686;51.716;7.016;2023-03-01T02:42:16;7.50;64.20
71837;DHT22;59686;51.716;7.016;2023-03-01T02:44:43;7.50;64.30
71837;DHT22;59686;51.716;7.016;2023-03-01T02:47:09;7.50;64.20
71837;DHT22;59686;51.716;7.016;2023-03-01T02:49:36;7.50;64.10
71837;DHT22;59686;51.716;7.016;2023-03-01T02:52:26;7.40;64.10
71837;DHT22;59686;51.716;7.016;2023-03-01T02:55:06;7.40;64.10
71837;DHT22;59686;51.716;7.016;2023-03-01T02:57:34;7.40;64.20
71837;DHT22;59686;51.716;7.016;2023-03-01T03:00:05;7.40;64.10
71837;DHT22;59686;51.716;7.016;2023-03-01T03:02:32;7.40;64.10
71837;DHT22;59686;51.716;7.016;2023-03-01T03:05:13;7.40;64.20
71837;DHT22;59686;51.716;7.016;2023-03-01T03:07:42;7.40;65.00
71837;DHT22;59686;51.716;7.016;2023-03-01T03:10:11;7.40;64.20
71837;DHT22;59686;51.716;7.016;2023-03-01T03:12:38;7.30;64.10
71837;DHT22;59686;51.716;7.016;2023-03-01T03:15:06;7.30;65.00
71837;DHT22;59686;51.716;7.016;2023-03-01T03:17:38;7.30;64.30
71837;DHT22;59686;51.716;7.016;2023-03-01T03:20:05;7.40;64.30
71837;DHT22;59686;51.716;7.016;2023-03-01T03:22:32;7.30;64.20
71837;DHT22;59686;51.716;7.016;2023-03-01T03:24:59;7.30;64.20
71837;DHT22;59686;51.716;7.016;2023-03-01T03:27:25;7.30;64.20
71837;DHT22;59686;51.716;7.016;2023-03-01T03:29:51;7.30;64.80
71837;DHT22;59686;51.716;7.016;2023-03-01T03:32:16;7.30;64.10
71837;DHT22;59686;51.716;7.016;2023-03-01T03:34:42;7.30;64.20
71837;DHT22;59686;51.716;7.016;2023-03-01T03:37:08;7.30;64.10
71837;DHT22;59686;51.716;7.016;2023-03-01T03:39:53;7.20;64.10
71837;DHT22;59686;51.716;7.016;2023-03-01T03:42:21;7.30;64.20
71837;DHT22;59686;51.716;7.016;2023-03-01T03:44:48;7.20;64.10
71837;DHT22;59686;51.716;7.016;2023-03-01T03:47:13;7.20;64.10
71837;DHT22;59686;51.716;7.016;2023-03-01T03:49:39;7.20;64.10
71837;DHT22;59686;51.716;7.016;2023-03-01T03:52:05;7.20;64.80
71837;DHT22;59686;51.716;7.016;2023-03-01T03:54:40;7.20;64.80
71837;DHT22;59686;51.716;7.016;2023-03-01T03:57:06;7.20;64.10
71837;DHT22;59686;51.716;7.016;2023-03-01T03:59:32;7.20;64.10
71837;DHT22;59686;51.716;7.016;2023-03-01T04:01:58;7.20;64.20
71837;DHT22;59686;51.716;7.016;2023-03-01T04:04:24;7.20;64.10
71837;DHT22;59686;51.716;7.016;2023-03-01T04:06:49;7.10;64.10
71837;DHT22;59686;51.716;7.016;2023-03-01T04:09:15;7.10;64.10
71837;DHT22;59686;51.716;7.016;2023-03-01T04:11:51;7.10;64.10
71837;DHT22;59686;51.716;7.016;2023-03-01T04:14:16;7.10;64.00
71837;DHT22;59686;51.716;7.016;2023-03-01T04:16:42;7.20;64.10
71837;DHT22;59686;51.716;7.016;2023-03-01T04:19:08;7.10;64.10
71837;DHT22;59686;51.716;7.016;2023-03-01T04:21:35;7.10;64.10
71837;DHT22;59686;51.716;7.016;2023-03-01T04:24:01;7.10;64.10
71837;DHT22;59686;51.716;7.016;2023-03-01T04:26:29;7.10;64.10
71837;DHT22;59686;51.716;7.016;2023-03-01T04:28:55;7.10;64.10
71837;DHT22;59686;51.716;7.016;2023-03-01T04:31:21;7.10;64.10
71837;DHT22;59686;51.716;7.016;2023-03-01T04:33:52;7.10;64.10
71837;DHT22;59686;51.716;7.016;2023-03-01T04:36:20;7.00;64.00
71837;DHT22;59686;51.716;7.016;2023-03-01T04:38:46;7.00;64.00
71837;DHT22;59686;51.716;7.016;2023-03-01T04:41:14;7.00;64.70
71837;DHT22;59686;51.716;7.016;2023-03-01T04:43:40;6.90;64.00
71837;DHT22;59686;51.716;7.016;2023-03-01T04:46:10;7.00;64.10
71837;DHT22;59686;51.716;7.016;2023-03-01T04:48:37;7.00;64.00
71837;DHT22;59686;51.716;7.016;2023-03-01T04:51:04;7.00;64.10
71837;DHT22;59686;51.716;7.016;2023-03-01T04:53:30;7.00;63.90
71837;DHT22;59686;51.716;7.016;2023-03-01T04:55:56;7.00;64.00
71837;DHT22;59686;51.716;7.016;2023-03-01T04:58:26;7.00;64.00
71837;DHT22;59686;51.716;7.016;2023-03-01T05:00:52;7.00;64.00
71837;DHT22;59686;51.716;7.016;2023-03-01T05:03:20;6.90;63.90
71837;DHT22;59686;51.716;7.016;2023-03-01T05:05:48;7.00;64.00
71837;DHT22;59686;51.716;7.016;2023-03-01T05:08:14;6.90;63.90
71837;DHT22;59686;51.716;7.016;2023-03-01T05:10:45;6.90;64.00
71837;DHT22;59686;51.716;7.016;2023-03-01T05:13:13;6.90;63.90
71837;DHT22;59686;51.716;7.016;2023-03-01T05:15:47;7.00;64.00
71837;DHT22;59686;51.716;7.016;2023-03-01T05:18:14;6.90;63.90
71837;DHT22;59686;51.716;7.016;2023-03-01T05:20:40;6.80;63.80
71837;DHT22;59686;51.716;7.016;2023-03-01T05:23:06;6.90;63.90
71837;DHT22;59686;51.716;7.016;2023-03-01T05:25:33;6.90;63.90
71837;DHT22;59686;51.716;7.016;2023-03-01T05:28:00;6.90;63.90
71837;DHT22;59686;51.716;7.016;2023-03-01T05:30:31;6.80;63.90
71837;DHT22;59686;51.716;7.016;2023-03-01T05:32:58;6.80;63.80
71837;DHT22;59686;51.716;7.016;2023-03-01T05:35:24;6.80;63.90
71837;DHT22;59686;51.716;7.016;2023-03-01T05:37:50;6.80;63.90
71837;DHT22;59686;51.716;7.016;2023-03-01T05:40:19;6.80;63.70
71837;DHT22;59686;51.716;7.016;2023-03-01T05:42:51;6.80;63.90
71837;DHT22;59686;51.716;7.016;2023-03-01T05:45:17;6.80;63.80
71837;DHT22;59686;51.716;7.016;2023-03-01T05:47:46;6.80;63.80
71837;DHT22;59686;51.716;7.016;2023-03-01T05:50:21;6.80;63.80
71837;DHT22;59686;51.716;7.016;2023-03-01T05:53:09;6.80;63.80
71837;DHT22;59686;51.716;7.016;2023-03-01T05:55:36;6.80;63.90
71837;DHT22;59686;51.716;7.016;2023-03-01T05:58:04;6.70;63.80
71837;DHT22;59686;51.716;7.016;2023-03-01T06:00:32;6.70;63.80
71837;DHT22;59686;51.716;7.016;2023-03-01T06:02:58;6.70;63.80
71837;DHT22;59686;51.716;7.016;2023-03-01T06:05:24;6.70;63.70
71837;DHT22;59686;51.716;7.016;2023-03-01T06:07:50;6.70;64.60
71837;DHT22;59686;51.716;7.016;2023-03-01T06:10:17;6.70;63.80
71837;DHT22;59686;51.716;7.016;2023-03-01T06:12:43;6.70;63.80
71837;DHT22;59686;51.716;7.016;2023-03-01T06:15:11;6.70;63.80
71837;DHT22;59686;51.716;7.016;2023-03-01T06:17:39;6.70;63.80
71837;DHT22;59686;51.716;7.016;2023-03-01T06:20:12;6.70;63.80
71837;DHT22;59686;51.716;7.016;2023-03-01T06:22:38;6.70;63.80
71837;DHT22;59686;51.716;7.016;2023-03-01T06:25:05;6.70;63.70
71837;DHT22;59686;51.716;7.016;2023-03-01T06:27:30;6.60;63.70
71837;DHT22;59686;51.716;7.016;2023-03-01T06:29:56;6.70;63.80
71837;DHT22;59686;51.716;7.016;2023-03-01T06:32:22;6.70;63.80
71837;DHT22;59686;51.716;7.016;2023-03-01T06:34:48;6.60;63.60
71837;DHT22;59686;51.716;7.016;2023-03-01T06:37:13;6.60;63.60
71837;DHT22;59686;51.716;7.016;2023-03-01T06:39:41;6.60;63.60
71837;DHT22;59686;51.716;7.016;2023-03-01T06:42:08;6.60;63.70
71837;DHT22;59686;51.716;7.016;2023-03-01T06:44:36;6.60;63.70
71837;DHT22;59686;51.716;7.016;2023-03-01T06:47:02;6.60;63.70
71837;DHT22;59686;51.716;7.016;2023-03-01T06:49:28;6.70;63.90
71837;DHT22;59686;51.716;7.016;2023-03-01T06:51:54;6.60;63.80
71837;DHT22;59686;51.716;7.016;2023-03-01T06:54:20;6.60;63.80
71837;DHT22;59686;51.716;7.016;2023-03-01T06:56:48;6.60;63.90
71837;DHT22;59686;51.716;7.016;2023-03-01T06:59:13;6.60;63.80
71837;DHT22;59686;51.716;7.016;2023-03-01T07:01:39;6.70;63.90
71837;DHT22;59686;51.716;7.016;2023-03-01T07:04:05;6.60;63.90
71837;DHT22;59686;51.716;7.016;2023-03-01T07:06:30;6.60;63.90
71837;DHT22;59686;51.716;7.016;2023-03-01T07:08:58;6.50;63.90
71837;DHT22;59686;51.716;7.016;2023-03-01T07:11:24;6.60;63.90
71837;DHT22;59686;51.716;7.016;2023-03-01T07:13:50;6.70;64.10
71837;DHT22;59686;51.716;7.016;2023-03-01T07:16:15;6.50;64.00
71837;DHT22;59686;51.716;7.016;2023-03-01T07:18:41;6.50;64.10
71837;DHT22;59686;51.716;7.016;2023-03-01T07:21:08;6.50;64.00
71837;DHT22;59686;51.716;7.016;2023-03-01T07:23:34;6.50;64.10
71837;DHT22;59686;51.716;7.016;2023-03-01T07:26:00;6.50;64.10
71837;DHT22;59686;51.716;7.016;2023-03-01T07:28:26;6.50;64.10
71837;DHT22;59686;51.716;7.016;2023-03-01T07:30:52;6.50;64.10
71837;DHT22;59686;51.716;7.016;2023-03-01T07:33:18;6.50;64.10
71837;DHT22;59686;51.716;7.016;2023-03-01T07:35:44;6.50;64.30
71837;DHT22;59686;51.716;7.016;2023-03-01T07:38:09;6.60;64.40
71837;DHT22;59686;51.716;7.016;2023-03-01T07:40:35;6.50;64.40
71837;DHT22;59686;51.716;7.016;2023-03-01T07:43:01;6.60;64.50
71837;DHT22;59686;51.716;7.016;2023-03-01T07:45:27;6.50;64.40
71837;DHT22;59686;51.716;7.016;2023-03-01T07:47:54;6.50;64.50
71837;DHT22;59686;51.716;7.016;2023-03-01T07:50:21;6.40;64.40
71837;DHT22;59686;51.716;7.016;2023-03-01T07:52:48;6.50;64.50
71837;DHT22;59686;51.716;7.016;2023-03-01T07:55:15;6.40;64.60
71837;DHT22;59686;51.716;7.016;2023-03-01T07:57:41;6.40;64.70
71837;DHT22;59686;51.716;7.016;2023-03-01T08:00:09;6.50;64.60
71837;DHT22;59686;51.716;7.016;2023-03-01T08:02:36;6.50;64.80
71837;DHT22;59686;51.716;7.016;2023-03-01T08:05:01;6.50;64.80
71837;DHT22;59686;51.716;7.016;2023-03-01T08:07:27;6.50;64.80
71837;DHT22;59686;51.716;7.016;2023-03-01T08:09:53;6.50;64.90
71837;DHT22;59686;51.716;7.016;2023-03-01T08:12:18;6.50;64.80
71837;DHT22;59686;51.716;7.016;2023-03-01T08:14:44;6.50;64.90
71837;DHT22;59686;51.716;7.016;2023-03-01T08:17:12;6.50;65.00
71837;DHT22;59686;51.716;7.016;2023-03-01T08:19:38;6.50;65.00
71837;DHT22;59686;51.716;7.016;2023-03-01T08:22:04;6.50;65.00
71837;DHT22;59686;51.716;7.016;2023-03-01T08:24:29;6.50;65.00
71837;DHT22;59686;51.716;7.016;2023-03-01T08:26:55;6.70;65.30
71837;DHT22;59686;51.716;7.016;2023-03-01T08:29:21;6.50;65.10
71837;DHT22;59686;51.716;7.016;2023-03-01T08:31:47;6.60;65.20
71837;DHT22;59686;51.716;7.016;2023-03-01T08:34:15;6.40;65.00
71837;DHT22;59686;51.716;7.016;2023-03-01T08:36:43;6.50;65.10
71837;DHT22;59686;51.716;7.016;2023-03-01T08:39:12;6.50;65.10
71837;DHT22;59686;51.716;7.016;2023-03-01T08:41:38;6.50;65.20
71837;DHT22;59686;51.716;7.016;2023-03-01T08:44:05;6.50;65.30
71837;DHT22;59686;51.716;7.016;2023-03-01T08:46:37;6.50;65.30
71837;DHT22;59686;51.716;7.016;2023-03-01T08:49:07;6.50;66.00
71837;DHT22;59686;51.716;7.016;2023-03-01T08:51:34;6.50;65.30
71837;DHT22;59686;51.716;7.016;2023-03-01T08:54:21;6.50;65.30
71837;DHT22;59686;51.716;7.016;2023-03-01T08:56:48;6.50;65.40
71837;DHT22;59686;51.716;7.016;2023-03-01T08:59:15;6.50;65.40
71837;DHT22;59686;51.716;7.016;2023-03-01T09:01:41;6.60;65.40
71837;DHT22;59686;51.716;7.016;2023-03-01T09:04:09;6.50;65.40
71837;DHT22;59686;51.716;7.016;2023-03-01T09:06:35;6.50;65.30
71837;DHT22;59686;51.716;7.016;2023-03-01T09:09:02;6.50;65.30
71837;DHT22;59686;51.716;7.016;2023-03-01T09:11:28;6.50;65.40
71837;DHT22;59686;51.716;7.016;2023-03-01T09:13:54;6.50;65.40
71837;DHT22;59686;51.716;7.016;2023-03-01T09:16:22;6.50;65.40
71837;DHT22;59686;51.716;7.016;2023-03-01T09:18:54;6.50;65.40
71837;DHT22;59686;51.716;7.016;2023-03-01T09:21:22;6.50;65.50
71837;DHT22;59686;51.716;7.016;2023-03-01T09:23:49;6.40;65.40
71837;DHT22;59686;51.716;7.016;2023-03-01T09:26:21;6.50;65.50
71837;DHT22;59686;51.716;7.016;2023-03-01T09:28:48;6.50;65.40
71837;DHT22;59686;51.716;7.016;2023-03-01T09:31:15;6.50;65.40
71837;DHT22;59686;51.716;7.016;2023-03-01T09:33:49;6.50;65.40
71837;DHT22;59686;51.716;7.016;2023-03-01T09:36:21;6.50;65.40
71837;DHT22;59686;51.716;7.016;2023-03-01T09:38:47;6.50;65.40
71837;DHT22;59686;51.716;7.016;2023-03-01T09:41:30;6.50;65.40
71837;DHT22;59686;51.716;7.016;2023-03-01T09:44:07;6.50;65.30
71837;DHT22;59686;51.716;7.016;2023-03-01T09:46:41;6.50;65.30
71837;DHT22;59686;51.716;7.016;2023-03-01T09:49:18;6.50;65.30
71837;DHT22;59686;51.716;7.016;2023-03-01T09:51:56;6.50;65.20
71837;DHT22;59686;51.716;7.016;2023-03-01T09:54:22;6.70;65.40
71837;DHT22;59686;51.716;7.016;2023-03-01T09:57:05;6.50;65.40
71837;DHT22;59686;51.716;7.016;2023-03-01T09:59:40;6.50;65.20
71837;DHT22;59686;51.716;7.016;2023-03-01T10:02:54;6.50;65.30
71837;DHT22;59686;51.716;7.016;2023-03-01T10:05:41;6.50;65.30
71837;DHT22;59686;51.716;7.016;2023-03-01T10:08:38;6.50;65.30
71837;DHT22;59686;51.716;7.016;2023-03-01T10:11:20;6.60;65.30
71837;DHT22;59686;51.716;7.016;2023-03-01T10:13:48;6.60;65.40
71837;DHT22;59686;51.716;7.016;2023-03-01T10:16:41;6.60;64.80
71837;DHT22;59686;51.716;7.016;2023-03-01T10:19:17;6.60;64.60
71837;DHT22;59686;51.716;7.016;2023-03-01T10:21:46;6.60;64.40
71837;DHT22;59686;51.716;7.016;2023-03-01T10:24:16;6.50;64.30
71837;DHT22;59686;51.716;7.016;2023-03-01T10:26:59;6.60;64.30
71837;DHT22;59686;51.716;7.016;2023-03-01T10:29:37;6.60;64.10
71837;DHT22;59686;51.716;7.016;2023-03-01T10:32:05;6.50;64.00
71837;DHT22;59686;51.716;7.016;2023-03-01T10:34:35;6.60;64.20
71837;DHT22;59686;51.716;7.016;2023-03-01T10:39:57;6.60;64.30
71837;DHT22;59686;51.716;7.016;2023-03-01T10:42:32;6.60;64.30
71837;DHT22;59686;51.716;7.016;2023-03-01T10:45:24;6.60;64.10
71837;DHT22;59686;51.716;7.016;2023-03-01T10:51:05;6.60;64.10
71837;DHT22;59686;51.716;7.016;2023-03-01T10:53:48;6.60;63.60
71837;DHT22;59686;51.716;7.016;2023-03-01T10:56:15;6.60;63.60
71837;DHT22;59686;51.716;7.016;2023-03-01T10:59:17;6.60;63.70
71837;DHT22;59686;51.716;7.016;2023-03-01T11:01:45;6.70;63.70
71837;DHT22;59686;51.716;7.016;2023-03-01T11:04:14;6.60;63.70
71837;DHT22;59686;51.716;7.016;2023-03-01T11:06:41;6.50;63.90
71837;DHT22;59686;51.716;7.016;2023-03-01T11:09:14;6.70;63.90
71837;DHT22;59686;51.716;7.016;2023-03-01T11:11:41;6.70;63.80
71837;DHT22;59686;51.716;7.016;2023-03-01T11:14:18;6.70;63.90
71837;DHT22;59686;51.716;7.016;2023-03-01T11:16:48;6.70;63.90
71837;DHT22;59686;51.716;7.016;2023-03-01T11:19:19;6.70;63.80
71837;DHT22;59686;51.716;7.016;2023-03-01T11:21:53;6.70;63.90
71837;DHT22;59686;51.716;7.016;2023-03-01T11:24:30;6.70;63.80
71837;DHT22;59686;51.716;7.016;2023-03-01T11:27:01;6.70;63.30
71837;DHT22;59686;51.716;7.016;2023-03-01T11:29:38;6.70;63.20
71837;DHT22;59686;51.716;7.016;2023-03-01T11:32:11;6.80;63.20
71837;DHT22;59686;51.716;7.016;2023-03-01T11:37:44;6.70;62.90
71837;DHT22;59686;51.716;7.016;2023-03-01T11:40:32;6.70;63.10
71837;DHT22;59686;51.716;7.016;2023-03-01T11:51:25;6.80;63.10
71837;DHT22;59686;51.716;7.016;2023-03-01T11:56:43;6.80;63.10
71837;DHT22;59686;51.716;7.016;2023-03-01T12:07:38;6.80;63.40
71837;DHT22;59686;51.716;7.016;2023-03-01T12:10:28;6.80;63.30
71837;DHT22;59686;51.716;7.016;2023-03-01T12:15:58;6.90;63.40
71837;DHT22;59686;51.716;7.016;2023-03-01T12:24:15;6.90;63.50
71837;DHT22;59686;51.716;7.016;2023-03-01T12:29:31;6.90;63.70
71837;DHT22;59686;51.716;7.016;2023-03-01T12:32:19;6.90;63.60
71837;DHT22;59686;51.716;7.016;2023-03-01T12:35:55;6.90;63.60
71837;DHT22;59686;51.716;7.016;2023-03-01T12:38:11;6.90;63.60
71837;DHT22;59686;51.716;7.016;2023-03-01T12:43:30;6.90;63.70
71837;DHT22;59686;51.716;7.016;2023-03-01T12:46:08;6.90;63.80
71837;DHT22;59686;51.716;7.016;2023-03-01T12:49:09;6.90;63.80
71837;DHT22;59686;51.716;7.016;2023-03-01T12:51:38;7.00;63.80
71837;DHT22;59686;51.716;7.016;2023-03-01T12:54:28;7.00;63.70
71837;DHT22;59686;51.716;7.016;2023-03-01T12:56:57;7.00;63.70
71837;DHT22;59686;51.716;7.016;2023-03-01T12:59:34;7.00;63.90
71837;DHT22;59686;51.716;7.016;2023-03-01T13:02:23;7.00;63.70
71837;DHT22;59686;51.716;7.016;2023-03-01T13:10:49;7.10;63.70
71837;DHT22;59686;51.716;7.016;2023-03-01T13:13:21;7.10;63.60
71837;DHT22;59686;51.716;7.016;2023-03-01T13:15:48;7.10;63.40
71837;DHT22;59686;51.716;7.016;2023-03-01T13:20:50;7.10;63.50
71837;DHT22;59686;51.716;7.016;2023-03-01T13:26:02;7.20;63.30
71837;DHT22;59686;51.716;7.016;2023-03-01T13:31:56;7.20;63.10
71837;DHT22;59686;51.716;7.016;2023-03-01T13:34:02;7.20;63.10
71837;DHT22;59686;51.716;7.016;2023-03-01T13:39:02;7.30;62.80
71837;DHT22;59686;51.716;7.016;2023-03-01T13:44:24;7.30;62.90
71837;DHT22;59686;51.716;7.016;2023-03-01T13:46:58;7.30;63.00
71837;DHT22;59686;51.716;7.016;2023-03-01T13:49:33;7.40;62.80
71837;DHT22;59686;51.716;7.016;2023-03-01T13:54:51;7.40;62.80
71837;DHT22;59686;51.716;7.016;2023-03-01T13:57:23;7.40;62.80
71837;DHT22;59686;51.716;7.016;2023-03-01T13:59:50;7.40;62.80
71837;DHT22;59686;51.716;7.016;2023-03-01T14:02:16;7.50;62.90
71837;DHT22;59686;51.716;7.016;2023-03-01T14:04:42;7.40;62.80
71837;DHT22;59686;51.716;7.016;2023-03-01T14:07:22;7.50;62.70
71837;DHT22;59686;51.716;7.016;2023-03-01T14:10:03;7.50;62.80
71837;DHT22;59686;51.716;7.016;2023-03-01T14:12:44;7.50;62.80
71837;DHT22;59686;51.716;7.016;2023-03-01T14:15:26;7.60;62.90
71837;DHT22;59686;51.716;7.016;2023-03-01T14:20:33;7.60;62.80
71837;DHT22;59686;51.716;7.016;2023-03-01T14:23:10;7.60;62.70
71837;DHT22;59686;51.716;7.016;2023-03-01T14:25:37;7.60;62.60
71837;DHT22;59686;51.716;7.016;2023-03-01T14:28:31;7.60;62.60
71837;DHT22;59686;51.716;7.016;2023-03-01T14:31:03;7.70;62.40
71837;DHT22;59686;51.716;7.016;2023-03-01T14:33:55;7.70;62.50
71837;DHT22;59686;51.716;7.016;2023-03-01T14:36:27;7.70;62.20
71837;DHT22;59686;51.716;7.016;2023-03-01T14:38:53;7.70;62.20
71837;DHT22;59686;51.716;7.016;2023-03-01T14:41:21;7.70;62.20
71837;DHT22;59686;51.716;7.016;2023-03-01T14:46:41;7.80;62.40
71837;DHT22;59686;51.716;7.016;2023-03-01T14:49:17;7.80;62.10
71837;DHT22;59686;51.716;7.016;2023-03-01T14:52:06;7.90;62.40
71837;DHT22;59686;51.716;7.016;2023-03-01T14:54:42;7.80;62.30
71837;DHT22;59686;51.716;7.016;2023-03-01T14:57:18;7.90;62.20
71837;DHT22;59686;51.716;7.016;2023-03-01T14:59:45;7.90;62.10
71837;DHT22;59686;51.716;7.016;2023-03-01T15:02:17;7.90;61.90
71837;DHT22;59686;51.716;7.016;2023-03-01T15:04:50;7.80;61.90
71837;DHT22;59686;51.716;7.016;2023-03-01T15:07:17;7.90;61.90
71837;DHT22;59686;51.716;7.016;2023-03-01T15:09:43;7.90;61.80
71837;DHT22;59686;51.716;7.016;2023-03-01T15:14:52;8.00;61.80
71837;DHT22;59686;51.716;7.016;2023-03-01T15:17:35;8.00;61.70
71837;DHT22;59686;51.716;7.016;2023-03-01T15:20:05;8.10;62.00
71837;DHT22;59686;51.716;7.016;2023-03-01T15:22:34;8.00;61.90
71837;DHT22;59686;51.716;7.016;2023-03-01T15:25:00;8.10;62.00
71837;DHT22;59686;51.716;7.016;2023-03-01T15:27:27;8.10;61.90
71837;DHT22;59686;51.716;7.016;2023-03-01T15:30:00;8.10;61.90
71837;DHT22;59686;51.716;7.016;2023-03-01T15:32:35;8.10;61.80
71837;DHT22;59686;51.716;7.016;2023-03-01T15:35:43;8.10;62.70
71837;DHT22;59686;51.716;7.016;2023-03-01T15:38:50;8.20;61.50
71837;DHT22;59686;51.716;7.016;2023-03-01T15:41:31;8.00;61.80
71837;DHT22;59686;51.716;7.016;2023-03-01T15:43:59;8.20;61.40
71837;DHT22;59686;51.716;7.016;2023-03-01T15:46:31;8.30;61.40
71837;DHT22;59686;51.716;7.016;2023-03-01T15:49:03;8.20;61.10
71837;DHT22;59686;51.716;7.016;2023-03-01T15:51:36;8.30;61.40
71837;DHT22;59686;51.716;7.016;2023-03-01T15:54:20;8.20;61.00
71837;DHT22;59686;51.716;7.016;2023-03-01T15:56:49;8.20;61.10
71837;DHT22;59686;51.716;7.016;2023-03-01T15:59:17;8.30;60.90
71837;DHT22;59686;51.716;7.016;2023-03-01T16:01:43;8.20;60.90
71837;DHT22;59686;51.716;7.016;2023-03-01T16:04:14;8.30;61.00
71837;DHT22;59686;51.716;7.016;2023-03-01T16:06:53;8.20;61.10
71837;DHT22;59686;51.716;7.016;2023-03-01T16:09:26;8.30;61.10
71837;DHT22;59686;51.716;7.016;2023-03-01T16:11:52;8.30;61.20
71837;DHT22;59686;51.716;7.016;2023-03-01T16:14:18;8.30;61.30
71837;DHT22;59686;51.716;7.016;2023-03-01T16:16:45;8.30;61.10
71837;DHT22;59686;51.716;7.016;2023-03-01T16:19:11;8.30;61.30
71837;DHT22;59686;51.716;7.016;2023-03-01T16:21:37;8.30;61.30
71837;DHT22;59686;51.716;7.016;2023-03-01T16:24:10;8.30;61.00
71837;DHT22;59686;51.716;7.016;2023-03-01T16:26:36;8.60;61.00
71837;DHT22;59686;51.716;7.016;2023-03-01T16:29:03;8.50;61.10
71837;DHT22;59686;51.716;7.016;2023-03-01T16:31:31;8.50;60.60
71837;DHT22;59686;51.716;7.016;2023-03-01T16:33:58;8.50;60.60
71837;DHT22;59686;51.716;7.016;2023-03-01T16:36:26;8.50;60.80
71837;DHT22;59686;51.716;7.016;2023-03-01T16:38:54;8.50;60.60
71837;DHT22;59686;51.716;7.016;2023-03-01T16:41:22;8.60;61.00
71837;DHT22;59686;51.716;7.016;2023-03-01T16:43:49;8.60;61.70
71837;DHT22;59686;51.716;7.016;2023-03-01T16:46:18;8.60;61.80
71837;DHT22;59686;51.716;7.016;2023-03-01T16:48:45;8.50;60.80
71837;DHT22;59686;51.716;7.016;2023-03-01T16:51:12;8.60;61.10
71837;DHT22;59686;51.716;7.016;2023-03-01T16:53:40;8.60;60.80
71837;DHT22;59686;51.716;7.016;2023-03-01T16:56:08;8.60;61.00
71837;DHT22;59686;51.716;7.016;2023-03-01T16:58:35;8.60;61.00
71837;DHT22;59686;51.716;7.016;2023-03-01T17:01:13;8.60;61.10
71837;DHT22;59686;51.716;7.016;2023-03-01T17:03:40;8.60;61.30
71837;DHT22;59686;51.716;7.016;2023-03-01T17:06:07;8.50;61.10
71837;DHT22;59686;51.716;7.016;2023-03-01T17:08:33;8.60;61.20
71837;DHT22;59686;51.716;7.016;2023-03-01T17:11:09;8.60;61.40
71837;DHT22;59686;51.716;7.016;2023-03-01T17:13:36;8.60;61.30
71837;DHT22;59686;51.716;7.016;2023-03-01T17:16:07;8.60;61.30
71837;DHT22;59686;51.716;7.016;2023-03-01T17:18:36;8.60;61.30
71837;DHT22;59686;51.716;7.016;2023-03-01T17:21:04;8.70;61.40
71837;DHT22;59686;51.716;7.016;2023-03-01T17:23:31;8.60;61.20
71837;DHT22;59686;51.716;7.016;2023-03-01T17:25:57;8.70;61.30
71837;DHT22;59686;51.716;7.016;2023-03-01T17:28:26;8.70;61.40